Coraopolis, PA

7:35 PM EST on December 10, 2016 (GMT -0500)
Anderson Avenue Moon Twp | | Change Station

Elev 1063 ft 40.50 °N, 80.16 °W | Updated 4 seconds ago

Overcast
Overcast
21.2 °F
Feels Like 21 °F
N
0.0
Wind Variable Wind from North
Gusts 0.0 mph

Today
High -- | Low -- °F
--% Chance of Precip.
Yesterday
High -- | Low -- °F
Precip. -- in
Pressure 30.52 in
Visibility 10.0 miles
Clouds Mostly Cloudy 4000 ft
Windchill 21 °F
Dew Point 16 °F
Humidity 81%
Rainfall 0.00 in
Snow Depth Not available.
7:33 AM 4:53 PM
Waxing Gibbous, 87% visible
METAR KPIT 102351Z 24003KT 10SM BKN040 M04/M08 A3044 RMK AO2 SNE31 SLP335 P0000 60000 T10391083 11017 21039 50003
Pressure 30.52 in
Visibility 10.0 miles
Clouds Mostly Cloudy 4000 ft
Windchill 21 °F
Dew Point 16 °F
Humidity 81%
Rainfall 0.00 in
Snow Depth Not available.
7:33 AM 4:53 PM
Waxing Gibbous, 87% visible
METAR KPIT 102351Z 24003KT 10SM BKN040 M04/M08 A3044 RMK AO2 SNE31 SLP335 P0000 60000 T10391083 11017 21039 50003

10-Day Weather Forecast

Almanac

Astronomy

Dec. 10, 2016 Rise Set
Actual Time
Civil Twilight
Nautical Twilight
Astronomical Twilight
Moon
Length of Visible Light
Length of Day
Tomorrow will be .
, % of the Moon is Illuminated

Today's Extremes

State Highs State Lows

Community

WunderPhotos

Upload Photos

1,956,685 photos uploaded!

WunderBlog® & News

Nearby

Air Quality

  Air Quality AQ Index Pollutant
Not available.

Snow Depth

Station Depth Elevation

Earthquake Activity

City Distance Mag. Time & Date
Minimum magnitude displayed is 2.5.

Coastal Water Temperatures

Place Temperature

Stations

Nearby Weather Stations

Station Location Temp. Windchill Dew Point Humidity Wind Precip. Elev Updated Type
                   

Watches & Warnings

There are currently no watches in effect.